sensor_id;sensor_type;location;lat;lon;timestamp;P1;durP1;ratioP1;P2;durP2;ratioP2
35294;SDS011;21413;48.032;7.764;2022-09-13T00:00:47;3.37;;;3.20;;
35294;SDS011;21413;48.032;7.764;2022-09-13T00:03:13;4.30;;;3.27;;
35294;SDS011;21413;48.032;7.764;2022-09-13T00:05:39;2.70;;;2.60;;
35294;SDS011;21413;48.032;7.764;2022-09-13T00:08:06;3.20;;;3.00;;
35294;SDS011;21413;48.032;7.764;2022-09-13T00:10:32;2.97;;;2.77;;
35294;SDS011;21413;48.032;7.764;2022-09-13T00:12:59;3.70;;;2.93;;
35294;SDS011;21413;48.032;7.764;2022-09-13T00:15:25;2.83;;;2.27;;
35294;SDS011;21413;48.032;7.764;2022-09-13T00:17:51;2.97;;;2.97;;
35294;SDS011;21413;48.032;7.764;2022-09-13T00:20:17;3.50;;;2.57;;
35294;SDS011;21413;48.032;7.764;2022-09-13T00:22:43;2.93;;;2.80;;
35294;SDS011;21413;48.032;7.764;2022-09-13T00:25:09;6.03;;;2.93;;
35294;SDS011;21413;48.032;7.764;2022-09-13T00:27:36;2.83;;;2.63;;
35294;SDS011;21413;48.032;7.764;2022-09-13T00:30:05;6.70;;;2.70;;
35294;SDS011;21413;48.032;7.764;2022-09-13T00:32:35;2.97;;;2.70;;
35294;SDS011;21413;48.032;7.764;2022-09-13T00:35:01;6.30;;;2.23;;
35294;SDS011;21413;48.032;7.764;2022-09-13T00:37:27;2.30;;;2.27;;
35294;SDS011;21413;48.032;7.764;2022-09-13T00:39:53;3.17;;;2.97;;
35294;SDS011;21413;48.032;7.764;2022-09-13T00:42:23;5.77;;;2.90;;
35294;SDS011;21413;48.032;7.764;2022-09-13T00:47:17;2.80;;;2.60;;
35294;SDS011;21413;48.032;7.764;2022-09-13T00:49:45;3.53;;;2.53;;
35294;SDS011;21413;48.032;7.764;2022-09-13T00:52:14;2.47;;;2.37;;
35294;SDS011;21413;48.032;7.764;2022-09-13T00:54:41;8.10;;;3.20;;
35294;SDS011;21413;48.032;7.764;2022-09-13T00:57:09;2.53;;;2.43;;
35294;SDS011;21413;48.032;7.764;2022-09-13T00:59:37;2.30;;;2.30;;
35294;SDS011;21413;48.032;7.764;2022-09-13T01:02:04;5.70;;;2.77;;
35294;SDS011;21413;48.032;7.764;2022-09-13T01:04:31;3.03;;;2.83;;
35294;SDS011;21413;48.032;7.764;2022-09-13T01:06:59;3.03;;;2.70;;
35294;SDS011;21413;48.032;7.764;2022-09-13T01:09:27;2.90;;;2.90;;
35294;SDS011;21413;48.032;7.764;2022-09-13T01:11:56;4.30;;;2.80;;
35294;SDS011;21413;48.032;7.764;2022-09-13T01:14:28;2.90;;;2.53;;
35294;SDS011;21413;48.032;7.764;2022-09-13T01:16:54;5.43;;;2.30;;
35294;SDS011;21413;48.032;7.764;2022-09-13T01:19:20;4.70;;;2.73;;
35294;SDS011;21413;48.032;7.764;2022-09-13T01:35:15;2.67;;;2.57;;
35294;SDS011;21413;48.032;7.764;2022-09-13T01:42:46;5.03;;;2.50;;
35294;SDS011;21413;48.032;7.764;2022-09-13T01:45:26;11.40;;;2.60;;
35294;SDS011;21413;48.032;7.764;2022-09-13T01:47:59;3.00;;;2.80;;
35294;SDS011;21413;48.032;7.764;2022-09-13T01:50:33;2.37;;;2.20;;
35294;SDS011;21413;48.032;7.764;2022-09-13T01:55:45;2.50;;;2.40;;
35294;SDS011;21413;48.032;7.764;2022-09-13T02:01:40;6.80;;;3.10;;
35294;SDS011;21413;48.032;7.764;2022-09-13T02:03:38;2.63;;;2.50;;
35294;SDS011;21413;48.032;7.764;2022-09-13T02:06:10;3.63;;;2.23;;
35294;SDS011;21413;48.032;7.764;2022-09-13T02:08:39;2.50;;;2.40;;
35294;SDS011;21413;48.032;7.764;2022-09-13T02:11:08;3.13;;;2.67;;
35294;SDS011;21413;48.032;7.764;2022-09-13T02:13:36;3.13;;;2.83;;
35294;SDS011;21413;48.032;7.764;2022-09-13T02:16:06;2.60;;;2.50;;
35294;SDS011;21413;48.032;7.764;2022-09-13T02:18:38;11.93;;;2.60;;
35294;SDS011;21413;48.032;7.764;2022-09-13T02:21:27;4.30;;;2.40;;
35294;SDS011;21413;48.032;7.764;2022-09-13T02:23:52;5.53;;;2.67;;
35294;SDS011;21413;48.032;7.764;2022-09-13T02:26:20;5.70;;;2.70;;
35294;SDS011;21413;48.032;7.764;2022-09-13T02:28:48;3.53;;;3.20;;
35294;SDS011;21413;48.032;7.764;2022-09-13T02:31:18;3.10;;;3.00;;
35294;SDS011;21413;48.032;7.764;2022-09-13T02:33:48;3.53;;;3.20;;
35294;SDS011;21413;48.032;7.764;2022-09-13T02:36:21;4.00;;;2.77;;
35294;SDS011;21413;48.032;7.764;2022-09-13T02:38:50;2.87;;;2.67;;
35294;SDS011;21413;48.032;7.764;2022-09-13T02:41:42;2.83;;;2.47;;
35294;SDS011;21413;48.032;7.764;2022-09-13T02:44:13;2.77;;;2.50;;
35294;SDS011;21413;48.032;7.764;2022-09-13T02:46:54;8.13;;;2.30;;
35294;SDS011;21413;48.032;7.764;2022-09-13T02:54:46;3.30;;;2.60;;
35294;SDS011;21413;48.032;7.764;2022-09-13T02:59:55;4.10;;;2.63;;
35294;SDS011;21413;48.032;7.764;2022-09-13T03:02:21;2.97;;;2.73;;
35294;SDS011;21413;48.032;7.764;2022-09-13T03:04:49;8.53;;;2.47;;
35294;SDS011;21413;48.032;7.764;2022-09-13T03:07:16;2.73;;;2.63;;
35294;SDS011;21413;48.032;7.764;2022-09-13T03:09:45;2.67;;;2.43;;
35294;SDS011;21413;48.032;7.764;2022-09-13T03:14:55;9.10;;;3.27;;
35294;SDS011;21413;48.032;7.764;2022-09-13T03:17:50;4.30;;;2.60;;
35294;SDS011;21413;48.032;7.764;2022-09-13T03:20:19;3.30;;;2.67;;
35294;SDS011;21413;48.032;7.764;2022-09-13T03:25:39;3.60;;;2.30;;
35294;SDS011;21413;48.032;7.764;2022-09-13T03:28:33;2.10;;;2.10;;
35294;SDS011;21413;48.032;7.764;2022-09-13T03:30:56;3.70;;;2.30;;
35294;SDS011;21413;48.032;7.764;2022-09-13T03:38:30;3.23;;;2.37;;
35294;SDS011;21413;48.032;7.764;2022-09-13T03:41:04;5.53;;;2.10;;
35294;SDS011;21413;48.032;7.764;2022-09-13T03:43:32;2.70;;;2.60;;
35294;SDS011;21413;48.032;7.764;2022-09-13T03:46:02;2.77;;;2.43;;
35294;SDS011;21413;48.032;7.764;2022-09-13T03:48:29;3.17;;;2.50;;
35294;SDS011;21413;48.032;7.764;2022-09-13T03:50:55;2.53;;;2.43;;
35294;SDS011;21413;48.032;7.764;2022-09-13T03:53:23;4.27;;;3.23;;
35294;SDS011;21413;48.032;7.764;2022-09-13T03:55:50;3.47;;;3.17;;
35294;SDS011;21413;48.032;7.764;2022-09-13T03:58:17;4.77;;;3.53;;
35294;SDS011;21413;48.032;7.764;2022-09-13T04:00:44;2.90;;;2.63;;
35294;SDS011;21413;48.032;7.764;2022-09-13T04:03:11;6.30;;;5.73;;
35294;SDS011;21413;48.032;7.764;2022-09-13T04:05:37;4.77;;;2.43;;
35294;SDS011;21413;48.032;7.764;2022-09-13T04:08:04;2.33;;;2.03;;
35294;SDS011;21413;48.032;7.764;2022-09-13T04:10:30;4.23;;;2.43;;
35294;SDS011;21413;48.032;7.764;2022-09-13T04:12:57;2.53;;;2.30;;
35294;SDS011;21413;48.032;7.764;2022-09-13T04:15:24;5.37;;;2.00;;
35294;SDS011;21413;48.032;7.764;2022-09-13T04:17:50;3.90;;;2.63;;
35294;SDS011;21413;48.032;7.764;2022-09-13T04:20:16;11.50;;;3.30;;
35294;SDS011;21413;48.032;7.764;2022-09-13T04:22:42;22.30;;;5.10;;
35294;SDS011;21413;48.032;7.764;2022-09-13T04:25:08;47.63;;;10.17;;
35294;SDS011;21413;48.032;7.764;2022-09-13T04:27:34;5.33;;;2.70;;
35294;SDS011;21413;48.032;7.764;2022-09-13T04:30:01;7.90;;;2.20;;
35294;SDS011;21413;48.032;7.764;2022-09-13T04:32:27;2.13;;;2.03;;
35294;SDS011;21413;48.032;7.764;2022-09-13T04:34:53;2.10;;;2.00;;
35294;SDS011;21413;48.032;7.764;2022-09-13T04:37:19;2.03;;;1.93;;
35294;SDS011;21413;48.032;7.764;2022-09-13T04:39:45;1.97;;;1.87;;
35294;SDS011;21413;48.032;7.764;2022-09-13T04:42:11;2.17;;;2.07;;
35294;SDS011;21413;48.032;7.764;2022-09-13T04:44:37;5.30;;;2.30;;
35294;SDS011;21413;48.032;7.764;2022-09-13T04:47:03;2.97;;;1.63;;
35294;SDS011;21413;48.032;7.764;2022-09-13T04:49:30;5.80;;;2.40;;
35294;SDS011;21413;48.032;7.764;2022-09-13T04:51:57;1.97;;;1.87;;
35294;SDS011;21413;48.032;7.764;2022-09-13T04:54:23;4.10;;;1.90;;
35294;SDS011;21413;48.032;7.764;2022-09-13T04:56:50;11.43;;;2.57;;
35294;SDS011;21413;48.032;7.764;2022-09-13T04:59:16;4.10;;;1.97;;
35294;SDS011;21413;48.032;7.764;2022-09-13T05:01:42;2.20;;;2.10;;
35294;SDS011;21413;48.032;7.764;2022-09-13T05:04:09;2.60;;;2.00;;
35294;SDS011;21413;48.032;7.764;2022-09-13T05:06:35;5.17;;;2.03;;
35294;SDS011;21413;48.032;7.764;2022-09-13T05:09:01;3.60;;;2.00;;
35294;SDS011;21413;48.032;7.764;2022-09-13T05:11:28;2.07;;;1.97;;
35294;SDS011;21413;48.032;7.764;2022-09-13T05:13:55;9.70;;;2.23;;
35294;SDS011;21413;48.032;7.764;2022-09-13T05:16:22;7.53;;;2.40;;
35294;SDS011;21413;48.032;7.764;2022-09-13T05:18:48;2.47;;;2.37;;
35294;SDS011;21413;48.032;7.764;2022-09-13T05:21:15;2.60;;;2.30;;
35294;SDS011;21413;48.032;7.764;2022-09-13T05:23:41;2.33;;;2.33;;
35294;SDS011;21413;48.032;7.764;2022-09-13T05:26:07;2.30;;;2.20;;
35294;SDS011;21413;48.032;7.764;2022-09-13T05:28:34;2.00;;;2.00;;
35294;SDS011;21413;48.032;7.764;2022-09-13T05:31:04;3.13;;;2.70;;
35294;SDS011;21413;48.032;7.764;2022-09-13T05:33:32;13.20;;;4.57;;
35294;SDS011;21413;48.032;7.764;2022-09-13T05:35:59;6.63;;;5.33;;
35294;SDS011;21413;48.032;7.764;2022-09-13T05:38:25;17.90;;;6.83;;
35294;SDS011;21413;48.032;7.764;2022-09-13T05:40:55;11.93;;;7.07;;
35294;SDS011;21413;48.032;7.764;2022-09-13T05:43:25;15.20;;;6.27;;
35294;SDS011;21413;48.032;7.764;2022-09-13T05:46:13;10.60;;;5.03;;
35294;SDS011;21413;48.032;7.764;2022-09-13T05:48:38;9.33;;;4.97;;
35294;SDS011;21413;48.032;7.764;2022-09-13T05:51:04;11.73;;;5.60;;
35294;SDS011;21413;48.032;7.764;2022-09-13T05:53:31;9.40;;;4.50;;
35294;SDS011;21413;48.032;7.764;2022-09-13T05:55:57;4.70;;;4.30;;
35294;SDS011;21413;48.032;7.764;2022-09-13T05:58:23;5.23;;;3.67;;
35294;SDS011;21413;48.032;7.764;2022-09-13T06:00:53;2.83;;;2.53;;
35294;SDS011;21413;48.032;7.764;2022-09-13T06:03:20;3.80;;;2.90;;
35294;SDS011;21413;48.032;7.764;2022-09-13T06:05:46;3.30;;;3.00;;
35294;SDS011;21413;48.032;7.764;2022-09-13T06:08:12;3.27;;;2.63;;
35294;SDS011;21413;48.032;7.764;2022-09-13T06:10:38;6.90;;;2.70;;
35294;SDS011;21413;48.032;7.764;2022-09-13T06:13:04;2.63;;;2.53;;
35294;SDS011;21413;48.032;7.764;2022-09-13T06:15:30;2.70;;;2.50;;
35294;SDS011;21413;48.032;7.764;2022-09-13T06:17:56;6.87;;;3.10;;
35294;SDS011;21413;48.032;7.764;2022-09-13T06:20:22;7.67;;;2.93;;
35294;SDS011;21413;48.032;7.764;2022-09-13T06:22:48;2.53;;;2.40;;
35294;SDS011;21413;48.032;7.764;2022-09-13T06:25:14;5.23;;;2.77;;
35294;SDS011;21413;48.032;7.764;2022-09-13T06:27:40;2.60;;;2.50;;
35294;SDS011;21413;48.032;7.764;2022-09-13T06:30:07;3.13;;;2.57;;
35294;SDS011;21413;48.032;7.764;2022-09-13T06:32:36;4.20;;;2.80;;
35294;SDS011;21413;48.032;7.764;2022-09-13T06:35:02;2.40;;;2.30;;
35294;SDS011;21413;48.032;7.764;2022-09-13T06:37:28;3.80;;;3.00;;
35294;SDS011;21413;48.032;7.764;2022-09-13T06:39:53;2.50;;;2.40;;
35294;SDS011;21413;48.032;7.764;2022-09-13T06:42:20;7.43;;;2.63;;
35294;SDS011;21413;48.032;7.764;2022-09-13T06:44:46;2.80;;;2.40;;
35294;SDS011;21413;48.032;7.764;2022-09-13T06:47:12;2.60;;;2.07;;
35294;SDS011;21413;48.032;7.764;2022-09-13T06:49:38;2.60;;;2.33;;
35294;SDS011;21413;48.032;7.764;2022-09-13T06:52:04;2.50;;;2.40;;
35294;SDS011;21413;48.032;7.764;2022-09-13T06:54:30;7.40;;;2.60;;
35294;SDS011;21413;48.032;7.764;2022-09-13T06:56:56;7.30;;;2.27;;
35294;SDS011;21413;48.032;7.764;2022-09-13T06:59:22;5.03;;;2.33;;
35294;SDS011;21413;48.032;7.764;2022-09-13T07:01:48;2.60;;;2.40;;
35294;SDS011;21413;48.032;7.764;2022-09-13T07:04:15;1.77;;;1.77;;
35294;SDS011;21413;48.032;7.764;2022-09-13T07:06:42;2.43;;;2.23;;
35294;SDS011;21413;48.032;7.764;2022-09-13T07:09:16;1.90;;;1.80;;
35294;SDS011;21413;48.032;7.764;2022-09-13T07:11:42;5.33;;;2.00;;
35294;SDS011;21413;48.032;7.764;2022-09-13T07:14:16;3.57;;;2.30;;
35294;SDS011;21413;48.032;7.764;2022-09-13T07:16:42;3.03;;;2.30;;
35294;SDS011;21413;48.032;7.764;2022-09-13T07:19:11;1.90;;;1.90;;
35294;SDS011;21413;48.032;7.764;2022-09-13T07:21:37;7.23;;;2.50;;
35294;SDS011;21413;48.032;7.764;2022-09-13T07:24:03;1.97;;;1.83;;
35294;SDS011;21413;48.032;7.764;2022-09-13T07:26:29;1.90;;;1.90;;
35294;SDS011;21413;48.032;7.764;2022-09-13T07:28:56;1.80;;;1.80;;
35294;SDS011;21413;48.032;7.764;2022-09-13T07:31:27;2.53;;;2.03;;
35294;SDS011;21413;48.032;7.764;2022-09-13T07:33:54;2.10;;;2.00;;
35294;SDS011;21413;48.032;7.764;2022-09-13T07:36:20;1.90;;;1.80;;
35294;SDS011;21413;48.032;7.764;2022-09-13T07:38:46;2.43;;;1.67;;
35294;SDS011;21413;48.032;7.764;2022-09-13T07:41:13;5.37;;;2.10;;
35294;SDS011;21413;48.032;7.764;2022-09-13T07:43:40;1.90;;;1.87;;
35294;SDS011;21413;48.032;7.764;2022-09-13T07:46:07;2.40;;;2.00;;
35294;SDS011;21413;48.032;7.764;2022-09-13T07:48:34;4.73;;;1.40;;
35294;SDS011;21413;48.032;7.764;2022-09-13T07:51:07;2.00;;;1.90;;
35294;SDS011;21413;48.032;7.764;2022-09-13T07:53:34;2.00;;;1.90;;
35294;SDS011;21413;48.032;7.764;2022-09-13T07:56:01;1.63;;;1.63;;
35294;SDS011;21413;48.032;7.764;2022-09-13T07:58:28;3.80;;;1.77;;
35294;SDS011;21413;48.032;7.764;2022-09-13T08:00:54;1.97;;;1.80;;
35294;SDS011;21413;48.032;7.764;2022-09-13T08:03:21;2.30;;;1.70;;
35294;SDS011;21413;48.032;7.764;2022-09-13T08:05:47;2.83;;;1.90;;
35294;SDS011;21413;48.032;7.764;2022-09-13T08:08:13;2.03;;;1.90;;
35294;SDS011;21413;48.032;7.764;2022-09-13T08:10:40;1.70;;;1.60;;
35294;SDS011;21413;48.032;7.764;2022-09-13T08:13:06;1.73;;;1.63;;
35294;SDS011;21413;48.032;7.764;2022-09-13T08:15:32;3.80;;;2.17;;
35294;SDS011;21413;48.032;7.764;2022-09-13T08:17:58;1.60;;;1.60;;
35294;SDS011;21413;48.032;7.764;2022-09-13T08:20:24;2.57;;;1.60;;
35294;SDS011;21413;48.032;7.764;2022-09-13T08:22:50;4.23;;;2.43;;
35294;SDS011;21413;48.032;7.764;2022-09-13T08:25:16;1.90;;;1.90;;
35294;SDS011;21413;48.032;7.764;2022-09-13T08:27:42;3.90;;;1.70;;
35294;SDS011;21413;48.032;7.764;2022-09-13T08:30:08;1.97;;;1.73;;
35294;SDS011;21413;48.032;7.764;2022-09-13T08:32:34;1.80;;;1.77;;
35294;SDS011;21413;48.032;7.764;2022-09-13T08:35:00;1.50;;;1.50;;
35294;SDS011;21413;48.032;7.764;2022-09-13T08:37:26;1.60;;;1.60;;
35294;SDS011;21413;48.032;7.764;2022-09-13T08:39:52;10.53;;;1.70;;
35294;SDS011;21413;48.032;7.764;2022-09-13T08:42:27;5.40;;;1.70;;
35294;SDS011;21413;48.032;7.764;2022-09-13T08:44:58;5.80;;;1.80;;
35294;SDS011;21413;48.032;7.764;2022-09-13T08:47:30;6.93;;;1.83;;
35294;SDS011;21413;48.032;7.764;2022-09-13T08:50:05;2.00;;;1.60;;
35294;SDS011;21413;48.032;7.764;2022-09-13T08:52:32;2.30;;;1.17;;
35294;SDS011;21413;48.032;7.764;2022-09-13T08:55:01;6.20;;;1.40;;
35294;SDS011;21413;48.032;7.764;2022-09-13T08:57:32;2.30;;;1.30;;
35294;SDS011;21413;48.032;7.764;2022-09-13T09:00:04;1.47;;;1.37;;
35294;SDS011;21413;48.032;7.764;2022-09-13T09:07:46;1.40;;;1.40;;
35294;SDS011;21413;48.032;7.764;2022-09-13T09:10:16;1.63;;;1.63;;
35294;SDS011;21413;48.032;7.764;2022-09-13T09:12:51;5.00;;;1.33;;
35294;SDS011;21413;48.032;7.764;2022-09-13T09:15:20;2.30;;;1.20;;
35294;SDS011;21413;48.032;7.764;2022-09-13T09:18:03;1.57;;;1.37;;
35294;SDS011;21413;48.032;7.764;2022-09-13T09:20:41;3.23;;;1.37;;
35294;SDS011;21413;48.032;7.764;2022-09-13T09:23:23;1.63;;;1.53;;
35294;SDS011;21413;48.032;7.764;2022-09-13T09:25:54;2.00;;;1.90;;
35294;SDS011;21413;48.032;7.764;2022-09-13T09:28:20;5.43;;;1.77;;
35294;SDS011;21413;48.032;7.764;2022-09-13T09:30:59;1.90;;;1.90;;
35294;SDS011;21413;48.032;7.764;2022-09-13T09:36:05;1.40;;;1.30;;
35294;SDS011;21413;48.032;7.764;2022-09-13T09:41:05;2.23;;;1.70;;
35294;SDS011;21413;48.032;7.764;2022-09-13T09:43:33;1.13;;;1.13;;
35294;SDS011;21413;48.032;7.764;2022-09-13T09:46:01;2.07;;;1.80;;
35294;SDS011;21413;48.032;7.764;2022-09-13T09:48:29;2.83;;;1.80;;
35294;SDS011;21413;48.032;7.764;2022-09-13T09:50:58;1.80;;;1.30;;
35294;SDS011;21413;48.032;7.764;2022-09-13T09:53:32;1.43;;;1.33;;
35294;SDS011;21413;48.032;7.764;2022-09-13T09:56:00;1.60;;;1.50;;
35294;SDS011;21413;48.032;7.764;2022-09-13T09:58:41;3.83;;;1.20;;
35294;SDS011;21413;48.032;7.764;2022-09-13T10:01:15;3.23;;;1.40;;
35294;SDS011;21413;48.032;7.764;2022-09-13T10:03:41;1.20;;;1.10;;
35294;SDS011;21413;48.032;7.764;2022-09-13T10:06:18;1.53;;;1.20;;
35294;SDS011;21413;48.032;7.764;2022-09-13T10:08:47;1.40;;;1.30;;
35294;SDS011;21413;48.032;7.764;2022-09-13T10:11:18;5.70;;;1.70;;
35294;SDS011;21413;48.032;7.764;2022-09-13T10:13:56;3.13;;;1.10;;
35294;SDS011;21413;48.032;7.764;2022-09-13T10:16:29;5.17;;;1.20;;
35294;SDS011;21413;48.032;7.764;2022-09-13T10:19:19;4.57;;;1.60;;
35294;SDS011;21413;48.032;7.764;2022-09-13T10:24:26;1.33;;;1.23;;
35294;SDS011;21413;48.032;7.764;2022-09-13T10:26:53;2.03;;;1.23;;
35294;SDS011;21413;48.032;7.764;2022-09-13T10:29:19;2.27;;;1.13;;
35294;SDS011;21413;48.032;7.764;2022-09-13T10:31:47;3.53;;;1.40;;
35294;SDS011;21413;48.032;7.764;2022-09-13T10:34:19;1.63;;;1.20;;
35294;SDS011;21413;48.032;7.764;2022-09-13T10:39:19;1.00;;;1.00;;
35294;SDS011;21413;48.032;7.764;2022-09-13T10:41:50;7.10;;;1.30;;
35294;SDS011;21413;48.032;7.764;2022-09-13T10:44:59;1.43;;;1.10;;
35294;SDS011;21413;48.032;7.764;2022-09-13T10:47:06;6.30;;;1.13;;
35294;SDS011;21413;48.032;7.764;2022-09-13T10:49:38;2.00;;;1.00;;
35294;SDS011;21413;48.032;7.764;2022-09-13T10:54:49;3.93;;;1.23;;
35294;SDS011;21413;48.032;7.764;2022-09-13T10:57:33;3.30;;;1.10;;
35294;SDS011;21413;48.032;7.764;2022-09-13T10:59:59;1.20;;;1.10;;
35294;SDS011;21413;48.032;7.764;2022-09-13T11:05:19;1.47;;;1.10;;
35294;SDS011;21413;48.032;7.764;2022-09-13T11:12:59;2.53;;;1.10;;
35294;SDS011;21413;48.032;7.764;2022-09-13T11:28:24;1.37;;;1.10;;
35294;SDS011;21413;48.032;7.764;2022-09-13T11:38:30;2.63;;;1.00;;
35294;SDS011;21413;48.032;7.764;2022-09-13T11:48:36;2.23;;;1.00;;
35294;SDS011;21413;48.032;7.764;2022-09-13T11:56:11;3.90;;;1.23;;
35294;SDS011;21413;48.032;7.764;2022-09-13T11:58:47;3.23;;;1.50;;
35294;SDS011;21413;48.032;7.764;2022-09-13T12:01:16;78.87;;;5.30;;
35294;SDS011;21413;48.032;7.764;2022-09-13T12:03:58;1.37;;;1.37;;
35294;SDS011;21413;48.032;7.764;2022-09-13T12:06:30;2.40;;;1.37;;
35294;SDS011;21413;48.032;7.764;2022-09-13T12:08:58;2.50;;;1.10;;
35294;SDS011;21413;48.032;7.764;2022-09-13T12:11:27;3.60;;;1.30;;
35294;SDS011;21413;48.032;7.764;2022-09-13T12:13:56;1.23;;;0.90;;
35294;SDS011;21413;48.032;7.764;2022-09-13T12:18:56;1.30;;;1.17;;
35294;SDS011;21413;48.032;7.764;2022-09-13T12:21:58;6.00;;;1.47;;
35294;SDS011;21413;48.032;7.764;2022-09-13T12:24:17;1.30;;;1.27;;
35294;SDS011;21413;48.032;7.764;2022-09-13T12:26:52;1.43;;;1.33;;
35294;SDS011;21413;48.032;7.764;2022-09-13T12:29:22;2.37;;;1.60;;
35294;SDS011;21413;48.032;7.764;2022-09-13T12:31:50;2.97;;;1.43;;
35294;SDS011;21413;48.032;7.764;2022-09-13T12:34:24;5.93;;;1.23;;
35294;SDS011;21413;48.032;7.764;2022-09-13T12:39:25;1.47;;;1.47;;
35294;SDS011;21413;48.032;7.764;2022-09-13T12:42:03;8.43;;;1.63;;
35294;SDS011;21413;48.032;7.764;2022-09-13T12:44:36;1.63;;;1.10;;
35294;SDS011;21413;48.032;7.764;2022-09-13T12:47:20;4.00;;;1.30;;
35294;SDS011;21413;48.032;7.764;2022-09-13T13:02:44;3.23;;;1.37;;
35294;SDS011;21413;48.032;7.764;2022-09-13T13:05:27;1.63;;;1.40;;
35294;SDS011;21413;48.032;7.764;2022-09-13T13:07:59;1.37;;;1.37;;
35294;SDS011;21413;48.032;7.764;2022-09-13T13:10:30;1.30;;;1.30;;
35294;SDS011;21413;48.032;7.764;2022-09-13T13:15:59;1.40;;;1.30;;
35294;SDS011;21413;48.032;7.764;2022-09-13T13:18:27;1.47;;;1.40;;
35294;SDS011;21413;48.032;7.764;2022-09-13T13:23:33;2.10;;;1.37;;
35294;SDS011;21413;48.032;7.764;2022-09-13T13:31:08;1.47;;;1.37;;
35294;SDS011;21413;48.032;7.764;2022-09-13T13:33:48;3.03;;;1.30;;
35294;SDS011;21413;48.032;7.764;2022-09-13T13:36:27;2.50;;;1.20;;
35294;SDS011;21413;48.032;7.764;2022-09-13T13:38:57;1.80;;;1.70;;
35294;SDS011;21413;48.032;7.764;2022-09-13T13:46:34;5.17;;;1.40;;
35294;SDS011;21413;48.032;7.764;2022-09-13T13:52:09;2.83;;;1.10;;
35294;SDS011;21413;48.032;7.764;2022-09-13T13:57:21;1.80;;;1.03;;
35294;SDS011;21413;48.032;7.764;2022-09-13T13:59:49;4.07;;;1.27;;
35294;SDS011;21413;48.032;7.764;2022-09-13T14:02:17;1.67;;;1.67;;
35294;SDS011;21413;48.032;7.764;2022-09-13T14:10:08;1.30;;;1.20;;
35294;SDS011;21413;48.032;7.764;2022-09-13T14:15:30;1.67;;;1.53;;
35294;SDS011;21413;48.032;7.764;2022-09-13T14:18:01;5.07;;;1.40;;
35294;SDS011;21413;48.032;7.764;2022-09-13T14:20:30;3.90;;;1.20;;
35294;SDS011;21413;48.032;7.764;2022-09-13T14:23:15;7.40;;;1.20;;
35294;SDS011;21413;48.032;7.764;2022-09-13T14:25:42;2.83;;;1.27;;
35294;SDS011;21413;48.032;7.764;2022-09-13T14:28:11;1.10;;;1.10;;
35294;SDS011;21413;48.032;7.764;2022-09-13T14:30:38;1.20;;;1.10;;
35294;SDS011;21413;48.032;7.764;2022-09-13T14:33:05;1.33;;;1.23;;
35294;SDS011;21413;48.032;7.764;2022-09-13T14:35:33;1.43;;;1.07;;
35294;SDS011;21413;48.032;7.764;2022-09-13T14:40:35;1.50;;;1.40;;
35294;SDS011;21413;48.032;7.764;2022-09-13T14:46:04;4.67;;;1.40;;
35294;SDS011;21413;48.032;7.764;2022-09-13T14:48:40;6.37;;;1.10;;
35294;SDS011;21413;48.032;7.764;2022-09-13T14:53:55;2.20;;;1.10;;
35294;SDS011;21413;48.032;7.764;2022-09-13T14:56:36;4.30;;;1.27;;
35294;SDS011;21413;48.032;7.764;2022-09-13T14:59:06;3.13;;;1.53;;
35294;SDS011;21413;48.032;7.764;2022-09-13T15:01:37;7.90;;;2.83;;
35294;SDS011;21413;48.032;7.764;2022-09-13T15:04:03;0.90;;;0.90;;
35294;SDS011;21413;48.032;7.764;2022-09-13T15:06:32;3.33;;;1.37;;
35294;SDS011;21413;48.032;7.764;2022-09-13T15:09:00;1.00;;;1.00;;
35294;SDS011;21413;48.032;7.764;2022-09-13T15:11:40;5.40;;;1.40;;
35294;SDS011;21413;48.032;7.764;2022-09-13T15:16:45;1.60;;;1.20;;
35294;SDS011;21413;48.032;7.764;2022-09-13T15:19:35;8.73;;;1.73;;
35294;SDS011;21413;48.032;7.764;2022-09-13T15:22:08;1.17;;;1.17;;
35294;SDS011;21413;48.032;7.764;2022-09-13T15:24:36;3.60;;;1.50;;
35294;SDS011;21413;48.032;7.764;2022-09-13T15:27:14;4.43;;;1.43;;
35294;SDS011;21413;48.032;7.764;2022-09-13T15:29:46;1.53;;;1.43;;
35294;SDS011;21413;48.032;7.764;2022-09-13T15:35:17;1.40;;;1.30;;
35294;SDS011;21413;48.032;7.764;2022-09-13T15:37:46;5.73;;;1.37;;
35294;SDS011;21413;48.032;7.764;2022-09-13T15:40:23;1.37;;;1.30;;
35294;SDS011;21413;48.032;7.764;2022-09-13T15:42:50;1.53;;;1.23;;
35294;SDS011;21413;48.032;7.764;2022-09-13T15:45:17;3.80;;;1.70;;
35294;SDS011;21413;48.032;7.764;2022-09-13T15:47:44;3.03;;;1.30;;
35294;SDS011;21413;48.032;7.764;2022-09-13T15:50:18;1.37;;;1.17;;
35294;SDS011;21413;48.032;7.764;2022-09-13T15:52:44;3.33;;;2.00;;
35294;SDS011;21413;48.032;7.764;2022-09-13T15:55:10;1.60;;;1.50;;
35294;SDS011;21413;48.032;7.764;2022-09-13T15:57:36;1.30;;;1.20;;
35294;SDS011;21413;48.032;7.764;2022-09-13T16:00:02;1.30;;;1.13;;
35294;SDS011;21413;48.032;7.764;2022-09-13T16:02:31;2.27;;;1.60;;
35294;SDS011;21413;48.032;7.764;2022-09-13T16:04:57;3.60;;;1.40;;
35294;SDS011;21413;48.032;7.764;2022-09-13T16:07:24;1.43;;;1.40;;
35294;SDS011;21413;48.032;7.764;2022-09-13T16:09:50;1.37;;;1.27;;
35294;SDS011;21413;48.032;7.764;2022-09-13T16:12:17;4.10;;;1.47;;
35294;SDS011;21413;48.032;7.764;2022-09-13T16:14:43;1.23;;;1.23;;
35294;SDS011;21413;48.032;7.764;2022-09-13T16:17:14;4.57;;;1.60;;
35294;SDS011;21413;48.032;7.764;2022-09-13T16:19:42;1.90;;;1.70;;
35294;SDS011;21413;48.032;7.764;2022-09-13T16:22:08;2.97;;;1.57;;
35294;SDS011;21413;48.032;7.764;2022-09-13T16:24:34;6.03;;;1.70;;
35294;SDS011;21413;48.032;7.764;2022-09-13T16:27:01;1.90;;;1.43;;
35294;SDS011;21413;48.032;7.764;2022-09-13T16:29:27;2.40;;;1.90;;
35294;SDS011;21413;48.032;7.764;2022-09-13T16:31:53;2.37;;;2.23;;
35294;SDS011;21413;48.032;7.764;2022-09-13T16:34:21;2.07;;;1.97;;
35294;SDS011;21413;48.032;7.764;2022-09-13T16:36:47;3.17;;;2.30;;
35294;SDS011;21413;48.032;7.764;2022-09-13T16:39:13;3.43;;;2.00;;
35294;SDS011;21413;48.032;7.764;2022-09-13T16:41:39;5.53;;;1.87;;
35294;SDS011;21413;48.032;7.764;2022-09-13T16:44:05;2.73;;;1.63;;
35294;SDS011;21413;48.032;7.764;2022-09-13T16:46:32;3.90;;;2.10;;
35294;SDS011;21413;48.032;7.764;2022-09-13T16:48:58;2.60;;;2.40;;
35294;SDS011;21413;48.032;7.764;2022-09-13T16:51:24;4.60;;;1.83;;
35294;SDS011;21413;48.032;7.764;2022-09-13T16:53:51;11.70;;;2.50;;
35294;SDS011;21413;48.032;7.764;2022-09-13T16:56:18;5.10;;;2.30;;
35294;SDS011;21413;48.032;7.764;2022-09-13T16:58:45;6.17;;;2.80;;
35294;SDS011;21413;48.032;7.764;2022-09-13T17:01:12;2.10;;;2.07;;
35294;SDS011;21413;48.032;7.764;2022-09-13T17:03:39;3.73;;;2.10;;
35294;SDS011;21413;48.032;7.764;2022-09-13T17:06:06;1.97;;;1.87;;
35294;SDS011;21413;48.032;7.764;2022-09-13T17:08:33;2.10;;;2.00;;
35294;SDS011;21413;48.032;7.764;2022-09-13T17:10:59;2.57;;;2.47;;
35294;SDS011;21413;48.032;7.764;2022-09-13T17:13:25;4.37;;;2.10;;
35294;SDS011;21413;48.032;7.764;2022-09-13T17:15:51;7.13;;;1.80;;
35294;SDS011;21413;48.032;7.764;2022-09-13T17:18:17;9.80;;;1.83;;
35294;SDS011;21413;48.032;7.764;2022-09-13T17:20:44;1.60;;;1.50;;
35294;SDS011;21413;48.032;7.764;2022-09-13T17:23:10;1.67;;;1.67;;
35294;SDS011;21413;48.032;7.764;2022-09-13T17:25:36;1.50;;;1.40;;
35294;SDS011;21413;48.032;7.764;2022-09-13T17:28:05;2.37;;;2.17;;
35294;SDS011;21413;48.032;7.764;2022-09-13T17:30:31;4.50;;;2.30;;
35294;SDS011;21413;48.032;7.764;2022-09-13T17:32:57;2.97;;;2.70;;
35294;SDS011;21413;48.032;7.764;2022-09-13T17:35:23;7.30;;;3.17;;
35294;SDS011;21413;48.032;7.764;2022-09-13T17:37:49;7.53;;;3.17;;
35294;SDS011;21413;48.032;7.764;2022-09-13T17:40:15;6.60;;;3.30;;
35294;SDS011;21413;48.032;7.764;2022-09-13T17:42:42;7.53;;;2.87;;
35294;SDS011;21413;48.032;7.764;2022-09-13T17:45:08;5.10;;;2.50;;